首页
METAR-TAF:

METAR-TAF

机场 :

阿卜杜勒-阿齐兹国王国际机场

吉达, 沙特阿拉伯

纬度: 21-42N, 经度: 039-11E, 海拔: 15米

当前天气观测

该预报发布于18分钟前的02:00 UTC
风速6节,风向西
温度 32°C
湿度 67%
气压 1001 hPa
能见度10公里或以上
1500米以下无云,无积雨云

METAR: OEJN 230200Z 27006KT CAVOK 32/25 Q1001 NOSIG

时间: 05:18 (02:18 UTC)

预报

该预报发布于3小时和18分钟前的23:00 UTC
预报有效从23日的 00点(UTC)到 24日的 06点(UTC)
风速6节,风向北转东北
能见度10公里或以上
散云层高于4000英尺
成为
从 23日的 06点(UTC)到 23日的 08点(UTC)
风速14节,风向西

TAF: OEJN 222300Z 2300/2406 03006KT 9999 SCT040 BECMG 2306/2308 27014KT

超过4000个机场的气象观测和天气预报(METAR&TAF报告)。

可查询的气象台以黄色和红色小点在地图上表示。

将鼠标移到小点上方,可查看气象台名称。

然后点击查看天气观测和预报。

如需切换地图:点击带黑十字的绿色按钮放大地图;点击带横线的绿色按钮缩小地图;或者点击绿色箭头查看邻近地区的地图。


METAR-TAF: